Time;durP1;ratioP1;P1;durP2;ratioP2;P2;SDS_P1;SDS_P2;PMS_P1;PMS_P2;Temp;Humidity;BMP_temperature;BMP_pressure;BME280_temperature;BME280_humidity;BME280_pressure;Samples;Min_cycle;Max_cycle;Signal;HPM_P1;HPM_P2
2023/03/17 00:00:09;;;;;;;17.02;4.30;;;;;;;21.35;37.69;101302.31;21078076;28;20494;-71
2023/03/17 00:10:20;;;;;;;21.48;5.00;;;;;;;21.46;37.28;101335.50;21081513;28;20102;-71
2023/03/17 00:20:27;;;;;;;18.20;4.05;;;;;;;21.48;36.93;101335.22;21080953;28;20040;-72
2023/03/17 00:30:29;;;;;;;14.73;4.10;;;;;;;21.36;36.62;101338.25;21079677;28;20095;-71
2023/03/17 00:40:33;;;;;;;50.20;5.57;;;;;;;21.31;36.88;101336.31;21075548;28;20040;-72
2023/03/17 00:50:34;;;;;;;16.75;3.72;;;;;;;21.09;37.22;101349.56;21050517;28;20051;-72
2023/03/17 01:00:38;;;;;;;13.15;3.13;;;;;;;21.09;37.49;101357.91;21063086;28;20046;-72
2023/03/17 01:10:41;;;;;;;24.45;3.17;;;;;;;21.00;37.53;101332.53;21043332;28;20121;-70
2023/03/17 01:20:46;;;;;;;10.32;2.78;;;;;;;21.14;37.96;101338.44;21062823;28;20043;-71
2023/03/17 01:30:48;;;;;;;10.25;3.17;;;;;;;21.06;38.02;101325.03;21076364;28;20491;-71
2023/03/17 01:40:52;;;;;;;9.50;2.42;;;;;;;21.18;37.75;101317.31;21076143;28;20047;-72
2023/03/17 01:50:57;;;;;;;9.68;2.40;;;;;;;21.01;38.00;101269.38;21063453;28;20040;-71
2023/03/17 02:01:00;;;;;;;6.80;2.63;;;;;;;21.00;37.98;101284.41;21088711;28;20047;-72
2023/03/17 02:11:05;;;;;;;8.25;2.30;;;;;;;21.24;37.98;101309.78;21087324;28;20032;-70
2023/03/17 02:21:26;;;;;;;6.50;1.98;;;;;;;21.24;37.61;101329.28;21094836;28;20106;-71
2023/03/17 02:31:27;;;;;;;6.18;2.13;;;;;;;21.33;36.92;101319.31;21064114;28;20044;-71
2023/03/17 02:41:29;;;;;;;9.45;2.67;;;;;;;21.33;37.24;101322.09;21093998;28;20028;-71
2023/03/17 02:51:31;;;;;;;5.05;1.40;;;;;;;21.38;36.93;101322.09;21093027;28;20044;-72
2023/03/17 03:01:32;;;;;;;6.88;1.77;;;;;;;21.45;36.53;101319.06;21093083;28;20445;-72
2023/03/17 03:11:34;;;;;;;3.15;1.50;;;;;;;21.44;36.38;101304.31;21089069;28;20051;-71
2023/03/17 03:21:36;;;;;;;2.53;1.48;;;;;;;21.49;36.52;101309.06;21091945;28;20082;-71
2023/03/17 03:31:37;;;;;;;7.95;2.13;;;;;;;21.38;35.83;101265.59;21088862;28;20051;-71
2023/03/17 03:41:40;;;;;;;7.65;1.95;;;;;;;21.54;35.62;101278.44;21085012;28;20036;-70
2023/03/17 03:51:41;;;;;;;5.07;1.70;;;;;;;21.62;36.07;101274.25;21085466;28;20494;-71
2023/03/17 04:01:42;;;;;;;6.32;1.38;;;;;;;21.37;35.68;101202.69;21082636;28;20051;-71
2023/03/17 04:11:44;;;;;;;29.42;2.85;;;;;;;21.50;35.53;101214.09;21081846;28;20032;-69
2023/03/17 04:21:47;;;;;;;23.60;2.22;;;;;;;21.63;35.77;101209.09;21068224;28;20395;-71
2023/03/17 04:31:48;;;;;;;4.03;1.58;;;;;;;21.66;33.84;101201.00;21079853;28;20172;-71
2023/03/17 04:41:50;;;;;;;3.80;1.50;;;;;;;21.77;33.28;101194.31;21077898;28;20039;-72
2023/03/17 04:51:54;;;;;;;6.55;1.27;;;;;;;21.84;33.25;101185.66;21076841;28;20047;-72
2023/03/17 05:01:55;;;;;;;1.98;1.23;;;;;;;21.83;32.87;101165.31;21079087;28;20100;-72
2023/03/17 05:11:59;;;;;;;5.43;1.48;;;;;;;21.81;33.01;101159.22;21075524;28;20044;-72
2023/03/17 05:22:07;;;;;;;2.78;1.40;;;;;;;21.76;33.46;101148.09;21064315;28;20032;-71
2023/03/17 05:32:08;;;;;;;2.10;1.13;;;;;;;21.72;33.36;101135.00;21062233;28;20044;-73
2023/03/17 05:42:10;;;;;;;5.20;1.40;;;;;;;21.66;33.40;101120.22;21018801;28;20488;-72
2023/03/17 05:52:11;;;;;;;1.73;1.25;;;;;;;21.64;33.08;101116.91;21022721;28;20499;-72
2023/03/17 06:02:13;;;;;;;2.08;1.20;;;;;;;21.47;33.27;101071.81;21044103;28;20101;-73
2023/03/17 06:12:15;;;;;;;2.15;1.52;;;;;;;21.61;33.00;101084.03;21074940;28;20040;-72
2023/03/17 06:22:22;;;;;;;2.42;1.20;;;;;;;21.53;33.18;101070.69;21026604;28;20096;-73
2023/03/17 06:32:24;;;;;;;3.10;1.08;;;;;;;21.61;32.55;101064.56;21074097;28;20044;-72
2023/03/17 06:42:25;;;;;;;2.00;1.17;;;;;;;21.51;32.60;101039.53;21072378;28;20040;-72
2023/03/17 06:52:27;;;;;;;2.20;1.25;;;;;;;21.57;32.64;101027.25;21087376;28;20052;-73
2023/03/17 07:02:28;;;;;;;2.28;1.45;;;;;;;21.52;32.36;100991.91;21076708;28;20044;-73
2023/03/17 07:12:30;;;;;;;2.15;1.30;;;;;;;21.56;32.05;100969.91;21031524;28;20044;-72
2023/03/17 07:22:31;;;;;;;1.83;1.17;;;;;;;21.40;32.11;100927.38;21049613;28;20086;-72
2023/03/17 07:32:34;;;;;;;3.05;1.40;;;;;;;21.31;31.62;100898.47;21079055;28;20089;-72
2023/03/17 07:42:37;;;;;;;1.23;1.00;;;;;;;21.48;31.79;100907.28;21071895;28;20044;-72
2023/03/17 07:52:39;;;;;;;1.63;0.80;;;;;;;21.42;31.96;100897.28;21076349;28;20500;-72
2023/03/17 08:02:41;;;;;;;1.98;1.15;;;;;;;21.49;31.52;100885.84;21082715;28;20101;-72
2023/03/17 08:12:43;;;;;;;1.92;1.00;;;;;;;21.38;31.44;100878.66;21056513;28;20036;-72
2023/03/17 08:22:44;;;;;;;2.15;1.23;;;;;;;21.27;30.77;100864.75;21082672;28;20460;-71
2023/03/17 08:32:47;;;;;;;1.77;1.20;;;;;;;21.40;30.97;100913.47;21063830;28;20040;-72
2023/03/17 08:42:49;;;;;;;1.55;1.27;;;;;;;21.41;30.98;100883.66;21066137;28;20475;-71
2023/03/17 08:52:54;;;;;;;2.05;1.15;;;;;;;21.15;30.79;100855.06;21076023;28;20039;-72
2023/03/17 09:02:57;;;;;;;3.22;1.30;;;;;;;21.37;31.20;100900.09;21078208;28;20437;-71
2023/03/17 09:13:02;;;;;;;1.52;1.30;;;;;;;21.24;30.84;100884.81;21058663;28;20102;-72
2023/03/17 09:23:08;;;;;;;1.60;1.10;;;;;;;21.29;31.01;100873.66;21077648;28;20093;-73
2023/03/17 09:33:14;;;;;;;1.42;1.23;;;;;;;21.06;30.74;100841.75;21064256;28;20086;-72
2023/03/17 09:43:21;;;;;;;1.63;1.17;;;;;;;21.30;30.70;100883.69;21049186;28;20040;-72
2023/03/17 09:53:34;;;;;;;1.50;1.30;;;;;;;21.23;31.79;100880.38;21075528;28;20036;-72
2023/03/17 10:03:36;;;;;;;1.10;0.90;;;;;;;21.23;30.96;100883.16;21067542;28;20083;-72
2023/03/17 10:13:58;;;;;;;1.75;1.25;;;;;;;21.24;31.19;100868.09;21077826;28;20070;-72
2023/03/17 10:24:03;;;;;;;1.95;1.38;;;;;;;20.93;31.00;100822.03;21077888;28;20040;-73
2023/03/17 10:34:20;;;;;;;1.77;1.40;;;;;;;21.25;31.32;100866.16;21075275;28;20043;-72
2023/03/17 10:44:49;;;;;;;8.30;1.40;;;;;;;21.28;31.98;100846.94;21072052;28;20044;-72
2023/03/17 10:54:51;;;;;;;3.63;1.30;;;;;;;21.39;33.07;100802.38;21104927;28;20376;-70
2023/03/17 11:05:20;;;;;;;8.43;1.58;;;;;;;21.26;33.11;100826.94;21140349;28;20042;-71
2023/03/17 11:15:32;;;;;;;5.25;1.80;;;;;;;21.45;32.77;100823.53;21162054;28;20038;-71
2023/03/17 11:25:40;;;;;;;4.03;1.52;;;;;;;21.48;32.41;100836.84;21169005;28;20540;-70
2023/03/17 11:36:12;;;;;;;2.73;1.63;;;;;;;21.26;32.63;100809.41;21170653;28;20036;-71
2023/03/17 11:46:38;;;;;;;3.15;1.30;;;;;;;21.42;32.54;100840.78;21169841;28;20079;-71
2023/03/17 11:56:47;;;;;;;4.97;1.60;;;;;;;21.44;32.37;100827.41;21169267;28;20506;-71
2023/03/17 12:06:57;;;;;;;2.00;1.38;;;;;;;21.33;32.71;100832.19;21168175;28;20552;-71
2023/03/17 12:17:08;;;;;;;4.65;1.70;;;;;;;21.49;32.51;100841.31;21167769;28;20087;-71
2023/03/17 12:27:38;;;;;;;2.85;1.45;;;;;;;21.47;32.74;100860.25;21166438;28;20031;-71
2023/03/17 12:37:40;;;;;;;2.75;1.17;;;;;;;21.52;32.42;100854.63;21131469;28;20066;-71
2023/03/17 12:47:59;;;;;;;2.45;1.13;;;;;;;21.53;32.94;100825.66;21079360;28;20044;-71
2023/03/17 12:58:26;;;;;;;;;;;;;;;21.58;32.84;100783.91;21080133;28;20032;-72
2023/03/17 13:08:38;;;;;;;1.70;1.60;;;;;;;21.57;32.75;100754.38;21051235;28;19968;-71
2023/03/17 13:18:39;;;;;;;4.05;1.67;;;;;;;21.64;32.93;100756.84;21080946;28;20112;-71
2023/03/17 13:28:46;;;;;;;2.45;1.33;;;;;;;21.66;32.75;100741.50;21052388;28;20476;-71
2023/03/17 13:39:16;;;;;;;3.05;1.50;;;;;;;21.67;33.19;100698.63;21079402;28;20491;-71
2023/03/17 13:49:18;;;;;;;5.05;2.20;;;;;;;21.72;32.96;100667.09;21074920;28;20395;-71
2023/03/17 13:59:21;;;;;;;4.32;1.85;;;;;;;21.49;33.02;100646.44;21075588;28;20080;-71
2023/03/17 14:09:26;;;;;;;4.07;1.77;;;;;;;21.55;32.83;100684.22;21064520;28;20044;-76
2023/03/17 14:19:29;;;;;;;4.15;1.90;;;;;;;21.39;33.55;100640.94;21074370;28;20036;-84
2023/03/17 14:29:32;;;;;;;3.28;1.83;;;;;;;21.37;33.84;100668.25;21049943;28;20040;-85
2023/03/17 14:39:33;;;;;;;6.63;2.17;;;;;;;21.48;34.21;100672.59;21073070;28;20109;-69
2023/03/17 14:49:35;;;;;;;4.28;1.83;;;;;;;21.49;34.22;100649.22;21067733;28;20048;-70
2023/03/17 14:59:39;;;;;;;3.88;1.90;;;;;;;21.51;34.51;100627.47;21062429;28;20133;-71
2023/03/17 15:09:41;;;;;;;3.70;1.77;;;;;;;21.55;34.70;100603.50;21082961;28;20480;-69
2023/03/17 15:19:46;;;;;;;3.17;1.60;;;;;;;21.48;34.89;100572.38;21082156;28;20070;-67
2023/03/17 15:29:48;;;;;;;10.27;1.90;;;;;;;21.60;34.50;100558.06;21066546;28;20134;-67
2023/03/17 15:39:54;;;;;;;5.07;2.10;;;;;;;21.67;34.54;100541.81;21079035;28;20407;-67
2023/03/17 15:50:22;;;;;;;16.90;3.03;;;;;;;21.69;33.65;100520.09;21083283;28;20098;-67
2023/03/17 16:00:27;;;;;;;33.88;5.82;;;;;;;21.83;34.11;100498.75;21052129;28;20070;-67
2023/03/17 16:10:31;;;;;;;47.35;6.53;;;;;;;21.69;34.60;100468.00;21080497;28;20048;-68
2023/03/17 16:20:38;;;;;;;34.38;4.90;;;;;;;21.62;35.25;100450.81;21057573;28;20032;-67
2023/03/17 16:30:39;;;;;;;66.43;6.90;;;;;;;21.85;36.06;100426.03;21077114;28;20036;-71
2023/03/17 16:40:44;;;;;;;88.93;8.50;;;;;;;21.74;36.39;100342.63;21083227;28;20073;-67
2023/03/17 16:50:45;;;;;;;90.28;7.35;;;;;;;21.77;36.86;100280.75;21063676;28;20109;-68
2023/03/17 17:00:53;;;;;;;107.35;8.75;;;;;;;21.91;36.44;100330.13;21066128;28;20035;-70
2023/03/17 17:10:56;;;;;;;130.75;10.55;;;;;;;22.13;36.71;100349.88;21079743;28;20036;-67
2023/03/17 17:20:57;;;;;;;146.65;12.98;;;;;;;22.28;36.33;100340.41;21064124;28;20483;-69
2023/03/17 17:30:59;;;;;;;116.13;10.02;;;;;;;22.35;36.55;100295.41;21074273;28;20051;-68
2023/03/17 17:41:04;;;;;;;137.35;11.38;;;;;;;22.33;36.77;100243.59;21069095;28;20036;-66
2023/03/17 17:51:06;;;;;;;137.52;11.48;;;;;;;22.22;36.65;100222.63;21067275;28;20073;-67
2023/03/17 18:01:07;;;;;;;120.90;11.60;;;;;;;22.44;36.59;100260.94;21069774;28;20044;-68
2023/03/17 18:11:09;;;;;;;218.35;17.77;;;;;;;22.55;37.12;100286.69;21071617;28;20101;-67
2023/03/17 18:21:11;;;;;;;109.68;9.90;;;;;;;22.56;36.46;100261.28;21057211;28;20052;-68
2023/03/17 18:31:17;;;;;;;67.63;8.95;;;;;;;22.48;36.82;100234.09;21066089;28;20044;-66
2023/03/17 18:41:18;;;;;;;77.03;8.70;;;;;;;22.38;36.23;100209.22;21082950;28;20074;-70
2023/03/17 18:51:20;;;;;;;63.00;8.32;;;;;;;22.70;36.63;100233.41;21081645;28;20048;-71
2023/03/17 19:01:21;;;;;;;56.17;8.32;;;;;;;22.57;36.50;100242.59;21086596;28;20035;-71
2023/03/17 19:11:23;;;;;;;59.75;8.25;;;;;;;22.38;37.35;100216.75;21064445;28;20035;-69
2023/03/17 19:21:25;;;;;;;33.53;6.82;;;;;;;22.41;37.35;100227.31;21072792;28;20070;-67
2023/03/17 19:31:27;;;;;;;34.70;6.85;;;;;;;22.45;36.87;100239.47;21063850;28;20044;-67
2023/03/17 19:41:31;;;;;;;33.65;7.30;;;;;;;22.51;36.68;100221.53;21081776;28;20089;-67
2023/03/17 19:51:35;;;;;;;30.20;7.13;;;;;;;22.48;36.73;100208.19;21084206;28;20044;-66
2023/03/17 20:01:37;;;;;;;35.45;6.63;;;;;;;22.35;36.65;100167.19;21084298;28;20553;-67
2023/03/17 20:11:39;;;;;;;29.70;7.30;;;;;;;22.37;36.61;100171.34;21045950;28;20066;-67
2023/03/17 20:21:44;;;;;;;28.35;6.55;;;;;;;22.26;36.73;100126.09;21077340;28;20052;-68
2023/03/17 20:31:46;;;;;;;25.92;6.85;;;;;;;22.26;36.93;100120.53;21069225;28;20415;-66
2023/03/17 20:41:51;;;;;;;23.02;7.18;;;;;;;20.49;37.17;99866.66;21049578;28;20032;-67
2023/03/17 20:51:52;;;;;;;35.20;7.40;;;;;;;22.44;37.20;100143.03;21079749;28;20098;-69
2023/03/17 21:01:54;;;;;;;18.95;6.88;;;;;;;22.48;37.27;100144.06;21078984;28;20097;-68
2023/03/17 21:11:56;;;;;;;15.43;6.68;;;;;;;22.49;37.62;100151.28;21036171;28;20033;-67
2023/03/17 21:21:57;;;;;;;21.48;7.07;;;;;;;22.49;37.45;100168.03;21077804;28;20052;-68
2023/03/17 21:32:02;;;;;;;16.15;6.30;;;;;;;22.44;37.70;100159.75;21080605;28;20047;-67
2023/03/17 21:42:04;;;;;;;19.25;6.90;;;;;;;22.44;38.10;100179.28;21073625;28;20032;-68
2023/03/17 21:52:06;;;;;;;26.23;7.18;;;;;;;22.62;37.18;100189.50;21075285;28;20056;-67
2023/03/17 22:02:11;;;;;;;52.10;9.02;;;;;;;22.43;38.98;100131.06;21075770;28;20579;-66
2023/03/17 22:12:18;;;;;;;34.28;7.63;;;;;;;22.71;40.45;100137.44;21082245;28;20043;-66
2023/03/17 22:22:20;;;;;;;23.27;7.18;;;;;;;22.62;40.16;100128.16;21063138;28;20488;-67
2023/03/17 22:32:22;;;;;;;23.23;7.35;;;;;;;22.59;39.78;100123.22;21091342;28;20113;-66
2023/03/17 22:42:23;;;;;;;15.85;6.65;;;;;;;22.50;38.93;100170.53;21084836;28;20467;-66
2023/03/17 22:52:27;;;;;;;18.17;7.13;;;;;;;22.50;39.03;100166.91;21059403;28;20052;-66
2023/03/17 23:02:28;;;;;;;19.13;7.10;;;;;;;22.44;38.88;100190.44;21089454;28;20044;-67
2023/03/17 23:12:30;;;;;;;14.43;6.40;;;;;;;22.39;38.30;100184.97;21088746;28;20457;-67
2023/03/17 23:22:33;;;;;;;22.38;6.68;;;;;;;22.34;37.96;100194.25;21086715;28;20040;-66
2023/03/17 23:32:35;;;;;;;15.70;6.20;;;;;;;21.64;37.56;100081.06;21087749;28;20040;-67
2023/03/17 23:42:36;;;;;;;19.92;6.82;;;;;;;22.18;37.38;100148.31;21086390;28;20036;-67
2023/03/17 23:52:48;;;;;;;15.52;6.78;;;;;;;22.23;37.52;100160.19;21085529;28;20368;-67
